sensor_id;sensor_type;location;lat;lon;timestamp;pressure;altitude;pressure_sealevel;temperature;humidity
60212;BME280;46079;48.686;15.598;2023-02-14T00:02:05;101814.75;;;20.44;41.36
60212;BME280;46079;48.686;15.598;2023-02-14T00:04:30;101812.19;;;20.42;41.30
60212;BME280;46079;48.686;15.598;2023-02-14T00:06:56;101819.16;;;20.43;41.59
60212;BME280;46079;48.686;15.598;2023-02-14T00:09:22;101806.00;;;20.43;41.52
60212;BME280;46079;48.686;15.598;2023-02-14T00:11:47;101813.03;;;20.43;41.51
60212;BME280;46079;48.686;15.598;2023-02-14T00:14:14;101808.72;;;20.42;41.41
60212;BME280;46079;48.686;15.598;2023-02-14T00:16:58;101811.34;;;20.42;41.56
60212;BME280;46079;48.686;15.598;2023-02-14T00:19:24;101803.56;;;20.40;41.55
60212;BME280;46079;48.686;15.598;2023-02-14T00:21:50;101815.84;;;20.40;41.19
60212;BME280;46079;48.686;15.598;2023-02-14T00:24:21;101807.97;;;20.40;41.51
60212;BME280;46079;48.686;15.598;2023-02-14T00:26:47;101812.38;;;20.39;41.58
60212;BME280;46079;48.686;15.598;2023-02-14T00:29:18;101818.47;;;20.40;41.42
60212;BME280;46079;48.686;15.598;2023-02-14T00:31:44;101812.50;;;20.38;41.36
60212;BME280;46079;48.686;15.598;2023-02-14T00:34:11;101811.53;;;20.39;41.30
60212;BME280;46079;48.686;15.598;2023-02-14T00:36:37;101810.69;;;20.38;41.48
60212;BME280;46079;48.686;15.598;2023-02-14T00:39:08;101812.50;;;20.38;41.63
60212;BME280;46079;48.686;15.598;2023-02-14T00:41:33;101809.88;;;20.38;41.65
60212;BME280;46079;48.686;15.598;2023-02-14T00:43:59;101804.69;;;20.36;41.46
60212;BME280;46079;48.686;15.598;2023-02-14T00:46:25;101819.50;;;20.37;41.54
60212;BME280;46079;48.686;15.598;2023-02-14T00:48:51;101816.97;;;20.36;41.34
60212;BME280;46079;48.686;15.598;2023-02-14T00:51:17;101814.34;;;20.36;41.49
60212;BME280;46079;48.686;15.598;2023-02-14T00:53:44;101805.63;;;20.35;41.56
60212;BME280;46079;48.686;15.598;2023-02-14T00:56:11;101821.41;;;20.35;41.82
60212;BME280;46079;48.686;15.598;2023-02-14T00:58:37;101815.28;;;20.35;41.54
60212;BME280;46079;48.686;15.598;2023-02-14T01:01:02;101814.44;;;20.34;41.48
60212;BME280;46079;48.686;15.598;2023-02-14T01:03:28;101818.84;;;20.34;41.68
60212;BME280;46079;48.686;15.598;2023-02-14T01:05:53;101814.44;;;20.34;41.55
60212;BME280;46079;48.686;15.598;2023-02-14T01:08:19;101816.22;;;20.34;41.45
60212;BME280;46079;48.686;15.598;2023-02-14T01:10:45;101812.75;;;20.33;41.56
60212;BME280;46079;48.686;15.598;2023-02-14T01:13:11;101804.03;;;20.33;41.69
60212;BME280;46079;48.686;15.598;2023-02-14T01:15:43;101807.50;;;20.33;41.85
60212;BME280;46079;48.686;15.598;2023-02-14T01:18:09;101807.50;;;20.33;41.42
60212;BME280;46079;48.686;15.598;2023-02-14T01:20:34;101811.06;;;20.32;41.43
60212;BME280;46079;48.686;15.598;2023-02-14T01:23:00;101797.94;;;20.32;41.47
60212;BME280;46079;48.686;15.598;2023-02-14T01:25:25;101797.94;;;20.32;41.92
60212;BME280;46079;48.686;15.598;2023-02-14T01:27:51;101800.56;;;20.32;41.32
60212;BME280;46079;48.686;15.598;2023-02-14T01:30:17;101804.94;;;20.32;41.40
60212;BME280;46079;48.686;15.598;2023-02-14T01:32:43;101798.00;;;20.31;41.48
60212;BME280;46079;48.686;15.598;2023-02-14T01:35:08;101797.16;;;20.30;41.43
60212;BME280;46079;48.686;15.598;2023-02-14T01:37:35;101796.22;;;20.31;41.82
60212;BME280;46079;48.686;15.598;2023-02-14T01:40:01;101796.34;;;20.30;41.95
60212;BME280;46079;48.686;15.598;2023-02-14T01:42:27;101787.56;;;20.29;41.51
60212;BME280;46079;48.686;15.598;2023-02-14T01:45:02;101782.31;;;20.29;41.37
60212;BME280;46079;48.686;15.598;2023-02-14T01:47:31;101778.84;;;20.29;41.50
60212;BME280;46079;48.686;15.598;2023-02-14T01:50:06;101778.84;;;20.29;41.80
60212;BME280;46079;48.686;15.598;2023-02-14T01:52:42;101780.66;;;20.28;41.86
60212;BME280;46079;48.686;15.598;2023-02-14T01:55:14;101778.84;;;20.29;41.42
60212;BME280;46079;48.686;15.598;2023-02-14T01:57:57;101778.00;;;20.28;41.58
60212;BME280;46079;48.686;15.598;2023-02-14T02:00:24;101777.06;;;20.29;41.51
60212;BME280;46079;48.686;15.598;2023-02-14T02:03:09;101770.25;;;20.27;41.64
60212;BME280;46079;48.686;15.598;2023-02-14T02:05:37;101776.34;;;20.27;41.38
60212;BME280;46079;48.686;15.598;2023-02-14T02:08:05;101775.50;;;20.27;41.47
60212;BME280;46079;48.686;15.598;2023-02-14T02:10:31;101766.75;;;20.26;41.36
60212;BME280;46079;48.686;15.598;2023-02-14T02:12:59;101770.25;;;20.27;41.33
60212;BME280;46079;48.686;15.598;2023-02-14T02:15:31;101764.13;;;20.26;41.59
60212;BME280;46079;48.686;15.598;2023-02-14T02:18:22;101768.63;;;20.24;42.00
60212;BME280;46079;48.686;15.598;2023-02-14T02:21:05;101767.69;;;20.25;41.53
60212;BME280;46079;48.686;15.598;2023-02-14T02:26:27;101772.94;;;20.25;41.81
60212;BME280;46079;48.686;15.598;2023-02-14T02:34:59;101752.88;;;20.24;41.86
60212;BME280;46079;48.686;15.598;2023-02-14T02:45:49;101749.38;;;20.24;41.96
60212;BME280;46079;48.686;15.598;2023-02-14T02:48:47;101751.09;;;20.25;41.45
60212;BME280;46079;48.686;15.598;2023-02-14T02:51:47;101745.84;;;20.25;41.88
60212;BME280;46079;48.686;15.598;2023-02-14T02:54:42;101745.91;;;20.23;41.69
60212;BME280;46079;48.686;15.598;2023-02-14T02:57:14;101742.38;;;20.24;41.75
60212;BME280;46079;48.686;15.598;2023-02-14T02:59:44;101747.63;;;20.24;41.64
60212;BME280;46079;48.686;15.598;2023-02-14T03:02:18;101744.13;;;20.24;41.63
60212;BME280;46079;48.686;15.598;2023-02-14T03:04:49;101743.28;;;20.23;41.71
60212;BME280;46079;48.686;15.598;2023-02-14T03:21:57;101735.41;;;20.23;41.66
60212;BME280;46079;48.686;15.598;2023-02-14T03:27:25;101733.59;;;20.24;41.68
60212;BME280;46079;48.686;15.598;2023-02-14T03:29:55;101731.94;;;20.23;41.32
60212;BME280;46079;48.686;15.598;2023-02-14T03:32:26;101733.72;;;20.22;41.74
60212;BME280;46079;48.686;15.598;2023-02-14T03:37:33;101738.03;;;20.23;41.61
60212;BME280;46079;48.686;15.598;2023-02-14T03:42:37;101735.50;;;20.21;41.76
60212;BME280;46079;48.686;15.598;2023-02-14T03:45:08;101732.88;;;20.21;41.73
60212;BME280;46079;48.686;15.598;2023-02-14T03:47:36;101731.09;;;20.22;41.35
60212;BME280;46079;48.686;15.598;2023-02-14T03:50:14;101734.63;;;20.21;41.73
60212;BME280;46079;48.686;15.598;2023-02-14T03:52:42;101732.00;;;20.21;41.77
60212;BME280;46079;48.686;15.598;2023-02-14T03:55:10;101736.34;;;20.22;41.76
60212;BME280;46079;48.686;15.598;2023-02-14T04:00:13;101726.75;;;20.21;41.61
60212;BME280;46079;48.686;15.598;2023-02-14T04:02:42;101727.63;;;20.21;41.82
60212;BME280;46079;48.686;15.598;2023-02-14T04:05:14;101722.38;;;20.21;41.75
60212;BME280;46079;48.686;15.598;2023-02-14T04:07:50;101731.94;;;20.23;41.87
60212;BME280;46079;48.686;15.598;2023-02-14T04:10:18;101725.00;;;20.21;41.68
60212;BME280;46079;48.686;15.598;2023-02-14T04:12:44;101729.38;;;20.21;41.64
60212;BME280;46079;48.686;15.598;2023-02-14T04:15:10;101732.00;;;20.21;41.57
60212;BME280;46079;48.686;15.598;2023-02-14T04:17:36;101725.84;;;20.22;41.73
60212;BME280;46079;48.686;15.598;2023-02-14T04:20:20;101727.63;;;20.21;41.68
60212;BME280;46079;48.686;15.598;2023-02-14T04:22:46;101731.09;;;20.22;41.76
60212;BME280;46079;48.686;15.598;2023-02-14T04:25:12;101723.22;;;20.22;41.92
60212;BME280;46079;48.686;15.598;2023-02-14T04:27:37;101728.34;;;20.24;41.68
60212;BME280;46079;48.686;15.598;2023-02-14T04:30:03;101722.38;;;20.21;42.04
60212;BME280;46079;48.686;15.598;2023-02-14T04:32:29;101725.72;;;20.24;42.02
60212;BME280;46079;48.686;15.598;2023-02-14T04:34:54;101721.41;;;20.23;41.99
60212;BME280;46079;48.686;15.598;2023-02-14T04:37:20;101716.09;;;20.24;41.78
60212;BME280;46079;48.686;15.598;2023-02-14T04:39:45;101717.00;;;20.23;41.99
60212;BME280;46079;48.686;15.598;2023-02-14T04:42:11;101723.97;;;20.24;42.13
60212;BME280;46079;48.686;15.598;2023-02-14T04:44:37;101724.88;;;20.23;41.80
60212;BME280;46079;48.686;15.598;2023-02-14T04:47:03;101716.16;;;20.23;41.79
60212;BME280;46079;48.686;15.598;2023-02-14T04:49:29;101717.00;;;20.23;41.81
60212;BME280;46079;48.686;15.598;2023-02-14T04:51:54;101723.03;;;20.25;41.83
60212;BME280;46079;48.686;15.598;2023-02-14T04:54:20;101715.13;;;20.25;41.98
60212;BME280;46079;48.686;15.598;2023-02-14T04:56:45;101722.19;;;20.25;41.98
60212;BME280;46079;48.686;15.598;2023-02-14T04:59:11;101715.13;;;20.25;41.85
60212;BME280;46079;48.686;15.598;2023-02-14T05:01:36;101723.84;;;20.26;42.25
60212;BME280;46079;48.686;15.598;2023-02-14T05:04:02;101719.44;;;20.26;41.86
60212;BME280;46079;48.686;15.598;2023-02-14T05:06:27;101716.81;;;20.26;41.81
60212;BME280;46079;48.686;15.598;2023-02-14T05:08:54;101722.06;;;20.26;41.90
60212;BME280;46079;48.686;15.598;2023-02-14T05:11:20;101723.78;;;20.27;41.94
60212;BME280;46079;48.686;15.598;2023-02-14T05:13:46;101722.94;;;20.27;42.04
60212;BME280;46079;48.686;15.598;2023-02-14T05:16:11;101722.84;;;20.28;41.79
60212;BME280;46079;48.686;15.598;2023-02-14T05:18:37;101720.19;;;20.28;41.83
60212;BME280;46079;48.686;15.598;2023-02-14T05:21:03;101718.41;;;20.29;41.92
60212;BME280;46079;48.686;15.598;2023-02-14T05:23:28;101714.94;;;20.28;41.91
60212;BME280;46079;48.686;15.598;2023-02-14T05:25:53;101708.75;;;20.29;41.84
60212;BME280;46079;48.686;15.598;2023-02-14T05:28:19;101714.00;;;20.29;41.73
60212;BME280;46079;48.686;15.598;2023-02-14T05:30:45;101705.28;;;20.29;41.83
60212;BME280;46079;48.686;15.598;2023-02-14T05:33:13;101711.38;;;20.29;42.03
60212;BME280;46079;48.686;15.598;2023-02-14T05:35:38;101715.72;;;20.30;41.82
60212;BME280;46079;48.686;15.598;2023-02-14T05:38:04;101706.13;;;20.29;41.62
60212;BME280;46079;48.686;15.598;2023-02-14T05:40:29;101709.63;;;20.30;41.55
60212;BME280;46079;48.686;15.598;2023-02-14T05:42:55;101713.06;;;20.30;41.61
60212;BME280;46079;48.686;15.598;2023-02-14T05:45:21;101709.50;;;20.31;41.79
60212;BME280;46079;48.686;15.598;2023-02-14T05:47:48;101710.44;;;20.30;41.84
60212;BME280;46079;48.686;15.598;2023-02-14T05:50:14;101720.00;;;20.31;41.68
60212;BME280;46079;48.686;15.598;2023-02-14T05:52:39;101721.72;;;20.32;41.82
60212;BME280;46079;48.686;15.598;2023-02-14T05:55:05;101726.97;;;20.32;41.40
60212;BME280;46079;48.686;15.598;2023-02-14T05:57:31;101724.34;;;20.32;41.68
60212;BME280;46079;48.686;15.598;2023-02-14T05:59:56;101719.09;;;20.32;41.76
60212;BME280;46079;48.686;15.598;2023-02-14T06:02:22;101721.59;;;20.34;41.71
60212;BME280;46079;48.686;15.598;2023-02-14T06:04:47;101730.34;;;20.34;41.69
60212;BME280;46079;48.686;15.598;2023-02-14T06:07:13;101724.25;;;20.34;41.63
60212;BME280;46079;48.686;15.598;2023-02-14T06:09:38;101732.03;;;20.35;41.71
60212;BME280;46079;48.686;15.598;2023-02-14T06:12:04;101733.25;;;20.30;39.50
60212;BME280;46079;48.686;15.598;2023-02-14T06:14:29;101726.22;;;20.16;38.36
60212;BME280;46079;48.686;15.598;2023-02-14T06:16:55;101730.69;;;19.99;37.69
60212;BME280;46079;48.686;15.598;2023-02-14T06:19:20;101735.16;;;19.83;37.44
60212;BME280;46079;48.686;15.598;2023-02-14T06:21:46;101740.47;;;19.67;36.32
60212;BME280;46079;48.686;15.598;2023-02-14T06:24:11;101743.84;;;19.53;36.35
60212;BME280;46079;48.686;15.598;2023-02-14T06:26:37;101748.16;;;19.39;36.44
60212;BME280;46079;48.686;15.598;2023-02-14T06:29:02;101742.84;;;19.24;36.50
60212;BME280;46079;48.686;15.598;2023-02-14T06:31:28;101740.09;;;19.12;36.28
60212;BME280;46079;48.686;15.598;2023-02-14T06:33:54;101746.78;;;19.01;36.14
60212;BME280;46079;48.686;15.598;2023-02-14T06:36:21;101746.41;;;18.92;35.92
60212;BME280;46079;48.686;15.598;2023-02-14T06:38:47;101738.66;;;18.90;36.58
60212;BME280;46079;48.686;15.598;2023-02-14T06:41:14;101740.94;;;18.96;37.07
60212;BME280;46079;48.686;15.598;2023-02-14T06:43:42;101740.50;;;19.04;36.86
60212;BME280;46079;48.686;15.598;2023-02-14T06:46:08;101744.41;;;19.13;37.47
60212;BME280;46079;48.686;15.598;2023-02-14T06:48:34;101739.75;;;19.18;37.24
60212;BME280;46079;48.686;15.598;2023-02-14T06:51:00;101735.75;;;19.26;37.27
60212;BME280;46079;48.686;15.598;2023-02-14T06:53:25;101739.81;;;19.32;37.38
60212;BME280;46079;48.686;15.598;2023-02-14T06:55:51;101748.28;;;19.37;37.28
60212;BME280;46079;48.686;15.598;2023-02-14T06:58:16;101746.25;;;19.42;37.90
60212;BME280;46079;48.686;15.598;2023-02-14T07:00:42;101752.06;;;19.47;38.31
60212;BME280;46079;48.686;15.598;2023-02-14T07:03:08;101745.69;;;19.51;38.40
60212;BME280;46079;48.686;15.598;2023-02-14T07:05:34;101742.81;;;19.56;38.47
60212;BME280;46079;48.686;15.598;2023-02-14T07:07:59;101748.72;;;19.60;38.30
60212;BME280;46079;48.686;15.598;2023-02-14T07:10:25;101745.94;;;19.63;38.50
60212;BME280;46079;48.686;15.598;2023-02-14T07:12:50;101751.03;;;19.66;38.55
60212;BME280;46079;48.686;15.598;2023-02-14T07:15:16;101749.16;;;19.68;38.74
60212;BME280;46079;48.686;15.598;2023-02-14T07:17:42;101756.88;;;19.71;38.51
60212;BME280;46079;48.686;15.598;2023-02-14T07:20:08;101748.91;;;19.72;38.61
60212;BME280;46079;48.686;15.598;2023-02-14T07:22:35;101753.16;;;19.75;38.53
60212;BME280;46079;48.686;15.598;2023-02-14T07:25:00;101753.88;;;19.77;38.51
60212;BME280;46079;48.686;15.598;2023-02-14T07:27:26;101751.19;;;19.79;38.33
60212;BME280;46079;48.686;15.598;2023-02-14T07:29:52;101747.53;;;19.81;38.39
60212;BME280;46079;48.686;15.598;2023-02-14T07:32:17;101751.84;;;19.82;38.26
60212;BME280;46079;48.686;15.598;2023-02-14T07:34:42;101749.13;;;19.84;38.37
60212;BME280;46079;48.686;15.598;2023-02-14T07:37:08;101756.00;;;19.86;38.54
60212;BME280;46079;48.686;15.598;2023-02-14T07:39:34;101767.25;;;19.88;38.60
60212;BME280;46079;48.686;15.598;2023-02-14T07:41:59;101758.44;;;19.89;38.42
60212;BME280;46079;48.686;15.598;2023-02-14T07:44:24;101757.41;;;19.92;38.35
60212;BME280;46079;48.686;15.598;2023-02-14T07:46:50;101760.88;;;19.92;38.31
60212;BME280;46079;48.686;15.598;2023-02-14T07:49:15;101762.56;;;19.93;38.44
60212;BME280;46079;48.686;15.598;2023-02-14T07:51:41;101765.09;;;19.95;38.35
60212;BME280;46079;48.686;15.598;2023-02-14T07:54:06;101771.97;;;19.97;38.29
60212;BME280;46079;48.686;15.598;2023-02-14T07:56:32;101774.59;;;19.97;38.40
60212;BME280;46079;48.686;15.598;2023-02-14T07:58:57;101781.53;;;19.98;38.44
60212;BME280;46079;48.686;15.598;2023-02-14T08:01:23;101781.53;;;19.98;38.48
60212;BME280;46079;48.686;15.598;2023-02-14T08:03:48;101786.59;;;20.02;38.42
60212;BME280;46079;48.686;15.598;2023-02-14T08:06:15;101782.22;;;20.02;38.42
60212;BME280;46079;48.686;15.598;2023-02-14T08:08:41;101783.03;;;20.03;38.49
60212;BME280;46079;48.686;15.598;2023-02-14T08:11:06;101792.59;;;20.04;38.57
60212;BME280;46079;48.686;15.598;2023-02-14T08:13:32;101794.28;;;20.05;38.16
60212;BME280;46079;48.686;15.598;2023-02-14T08:15:58;101791.66;;;20.05;38.24
60212;BME280;46079;48.686;15.598;2023-02-14T08:18:29;101790.75;;;20.06;38.23
60212;BME280;46079;48.686;15.598;2023-02-14T08:20:55;101794.13;;;20.08;38.07
60212;BME280;46079;48.686;15.598;2023-02-14T08:23:21;101788.88;;;20.08;38.01
60212;BME280;46079;48.686;15.598;2023-02-14T08:25:48;101788.88;;;20.08;38.26
60212;BME280;46079;48.686;15.598;2023-02-14T08:28:14;101794.03;;;20.09;37.94
60212;BME280;46079;48.686;15.598;2023-02-14T08:30:41;101789.59;;;20.10;38.22
60212;BME280;46079;48.686;15.598;2023-02-14T08:33:07;101796.56;;;20.11;38.00
60212;BME280;46079;48.686;15.598;2023-02-14T08:35:32;101787.75;;;20.12;38.19
60212;BME280;46079;48.686;15.598;2023-02-14T08:37:58;101789.53;;;20.11;38.06
60212;BME280;46079;48.686;15.598;2023-02-14T08:40:24;101799.09;;;20.12;38.05
60212;BME280;46079;48.686;15.598;2023-02-14T08:42:49;101799.09;;;20.12;38.26
60212;BME280;46079;48.686;15.598;2023-02-14T08:45:15;101804.28;;;20.14;38.24
60212;BME280;46079;48.686;15.598;2023-02-14T08:47:40;101805.13;;;20.14;38.05
60212;BME280;46079;48.686;15.598;2023-02-14T08:50:11;101802.47;;;20.14;38.13
60212;BME280;46079;48.686;15.598;2023-02-14T08:52:38;101803.31;;;20.15;38.10
60212;BME280;46079;48.686;15.598;2023-02-14T08:55:04;101798.84;;;20.17;38.14
60212;BME280;46079;48.686;15.598;2023-02-14T08:57:30;101803.13;;;20.18;38.03
60212;BME280;46079;48.686;15.598;2023-02-14T08:59:55;101804.00;;;20.18;38.16
60212;BME280;46079;48.686;15.598;2023-02-14T09:02:20;101801.38;;;20.18;38.00
60212;BME280;46079;48.686;15.598;2023-02-14T09:04:46;101801.28;;;20.20;38.00
60212;BME280;46079;48.686;15.598;2023-02-14T09:07:12;101800.31;;;20.21;37.95
60212;BME280;46079;48.686;15.598;2023-02-14T09:09:37;101801.28;;;20.20;38.27
60212;BME280;46079;48.686;15.598;2023-02-14T09:12:04;101804.66;;;20.22;38.22
60212;BME280;46079;48.686;15.598;2023-02-14T09:14:37;101799.41;;;20.22;38.19
60212;BME280;46079;48.686;15.598;2023-02-14T09:17:03;101805.50;;;20.23;38.16
60212;BME280;46079;48.686;15.598;2023-02-14T09:19:34;101802.81;;;20.24;38.15
60212;BME280;46079;48.686;15.598;2023-02-14T09:22:00;101808.91;;;20.25;38.20
60212;BME280;46079;48.686;15.598;2023-02-14T09:24:28;101810.69;;;20.24;37.90
60212;BME280;46079;48.686;15.598;2023-02-14T09:26:54;101819.28;;;20.26;38.08
60212;BME280;46079;48.686;15.598;2023-02-14T09:29:21;101815.84;;;20.26;37.97
60212;BME280;46079;48.686;15.598;2023-02-14T09:31:47;101822.88;;;20.25;38.03
60212;BME280;46079;48.686;15.598;2023-02-14T09:34:12;101823.72;;;20.26;38.01
60212;BME280;46079;48.686;15.598;2023-02-14T09:36:56;101829.81;;;20.26;37.90
60212;BME280;46079;48.686;15.598;2023-02-14T09:39:40;101818.38;;;20.27;37.90
60212;BME280;46079;48.686;15.598;2023-02-14T09:45:02;101820.06;;;20.28;37.92
60212;BME280;46079;48.686;15.598;2023-02-14T09:50:41;101818.28;;;20.29;37.99
60212;BME280;46079;48.686;15.598;2023-02-14T09:55:48;101817.34;;;20.30;37.92
60212;BME280;46079;48.686;15.598;2023-02-14T09:58:37;101821.75;;;20.29;37.72
60212;BME280;46079;48.686;15.598;2023-02-14T10:04:01;101816.47;;;20.29;37.94
60212;BME280;46079;48.686;15.598;2023-02-14T10:07:21;101817.34;;;20.30;38.01
60212;BME280;46079;48.686;15.598;2023-02-14T10:12:49;101817.25;;;20.31;37.84
60212;BME280;46079;48.686;15.598;2023-02-14T10:15:33;101815.47;;;20.32;38.08
60212;BME280;46079;48.686;15.598;2023-02-14T10:20:43;101816.34;;;20.32;37.97
60212;BME280;46079;48.686;15.598;2023-02-14T10:23:26;101812.00;;;20.31;37.91
60212;BME280;46079;48.686;15.598;2023-02-14T10:26:01;101817.16;;;20.33;37.90
60212;BME280;46079;48.686;15.598;2023-02-14T10:28:32;101809.28;;;20.33;38.06
60212;BME280;46079;48.686;15.598;2023-02-14T10:33:47;101810.13;;;20.33;38.31
60212;BME280;46079;48.686;15.598;2023-02-14T10:36:23;101810.13;;;20.33;38.31
60212;BME280;46079;48.686;15.598;2023-02-14T10:39:00;101812.75;;;20.33;38.11
60212;BME280;46079;48.686;15.598;2023-02-14T10:46:43;101798.66;;;20.34;38.37
60212;BME280;46079;48.686;15.598;2023-02-14T10:54:45;101804.69;;;20.36;38.39
60212;BME280;46079;48.686;15.598;2023-02-14T10:57:19;101796.78;;;20.36;38.66
60212;BME280;46079;48.686;15.598;2023-02-14T10:59:53;101799.44;;;20.36;38.61
60212;BME280;46079;48.686;15.598;2023-02-14T11:02:32;101793.34;;;20.36;38.68
60212;BME280;46079;48.686;15.598;2023-02-14T11:04:59;101787.13;;;20.37;38.75
60212;BME280;46079;48.686;15.598;2023-02-14T11:07:26;101787.13;;;20.37;38.69
60212;BME280;46079;48.686;15.598;2023-02-14T11:09:52;101781.03;;;20.36;38.60
60212;BME280;46079;48.686;15.598;2023-02-14T11:17:41;101778.31;;;20.38;38.80
60212;BME280;46079;48.686;15.598;2023-02-14T11:20:23;101776.63;;;20.37;38.69
60212;BME280;46079;48.686;15.598;2023-02-14T11:22:49;101783.56;;;20.38;38.66
60212;BME280;46079;48.686;15.598;2023-02-14T11:27:44;101778.31;;;20.38;38.86
60212;BME280;46079;48.686;15.598;2023-02-14T11:30:39;101787.97;;;20.37;38.89
60212;BME280;46079;48.686;15.598;2023-02-14T11:33:36;101773.91;;;20.38;39.03
60212;BME280;46079;48.686;15.598;2023-02-14T11:35:58;101774.75;;;20.39;39.01
60212;BME280;46079;48.686;15.598;2023-02-14T11:38:33;101776.41;;;20.40;38.99
60212;BME280;46079;48.686;15.598;2023-02-14T11:41:01;101780.00;;;20.39;38.93
60212;BME280;46079;48.686;15.598;2023-02-14T11:43:39;101781.69;;;20.40;38.94
60212;BME280;46079;48.686;15.598;2023-02-14T11:48:55;101776.41;;;20.40;38.92
60212;BME280;46079;48.686;15.598;2023-02-14T11:51:29;101765.91;;;20.40;39.14
60212;BME280;46079;48.686;15.598;2023-02-14T11:53:57;101764.16;;;20.40;39.00
60212;BME280;46079;48.686;15.598;2023-02-14T11:56:43;101769.41;;;20.40;38.94
60212;BME280;46079;48.686;15.598;2023-02-14T11:59:12;101765.06;;;20.39;38.87
60212;BME280;46079;48.686;15.598;2023-02-14T12:01:44;101753.72;;;20.39;38.98
60212;BME280;46079;48.686;15.598;2023-02-14T12:04:18;101748.38;;;20.40;39.05
60212;BME280;46079;48.686;15.598;2023-02-14T12:06:44;101751.00;;;20.40;38.99
60212;BME280;46079;48.686;15.598;2023-02-14T12:11:36;101743.13;;;20.40;38.93
60212;BME280;46079;48.686;15.598;2023-02-14T12:14:02;101739.63;;;20.40;38.95
60212;BME280;46079;48.686;15.598;2023-02-14T12:16:37;101735.25;;;20.40;38.97
60212;BME280;46079;48.686;15.598;2023-02-14T12:19:16;101735.25;;;20.40;38.91
60212;BME280;46079;48.686;15.598;2023-02-14T12:22:02;101732.69;;;20.39;38.91
60212;BME280;46079;48.686;15.598;2023-02-14T12:24:32;101729.97;;;20.40;38.87
60212;BME280;46079;48.686;15.598;2023-02-14T12:27:22;101726.47;;;20.40;38.92
60212;BME280;46079;48.686;15.598;2023-02-14T12:30:05;101725.56;;;20.41;38.94
60212;BME280;46079;48.686;15.598;2023-02-14T12:32:32;101727.34;;;20.40;38.98
60212;BME280;46079;48.686;15.598;2023-02-14T12:35:02;101730.81;;;20.41;38.71
60212;BME280;46079;48.686;15.598;2023-02-14T12:37:39;101729.03;;;20.41;38.93
60212;BME280;46079;48.686;15.598;2023-02-14T12:48:34;101722.81;;;20.42;38.85
60212;BME280;46079;48.686;15.598;2023-02-14T12:53:53;101717.56;;;20.42;39.05
60212;BME280;46079;48.686;15.598;2023-02-14T12:56:45;101714.94;;;20.42;38.72
60212;BME280;46079;48.686;15.598;2023-02-14T13:05:04;101724.53;;;20.43;38.76
60212;BME280;46079;48.686;15.598;2023-02-14T13:16:29;101715.88;;;20.41;38.77
60212;BME280;46079;48.686;15.598;2023-02-14T13:19:26;101707.06;;;20.42;38.56
60212;BME280;46079;48.686;15.598;2023-02-14T13:21:55;101711.47;;;20.42;38.67
60212;BME280;46079;48.686;15.598;2023-02-14T13:24:23;101700.13;;;20.41;38.70
60212;BME280;46079;48.686;15.598;2023-02-14T13:26:53;101701.06;;;20.40;38.77
60212;BME280;46079;48.686;15.598;2023-02-14T13:29:22;101698.31;;;20.42;39.04
60212;BME280;46079;48.686;15.598;2023-02-14T13:31:49;101700.13;;;20.41;38.99
60212;BME280;46079;48.686;15.598;2023-02-14T13:34:25;101698.31;;;20.42;38.78
60212;BME280;46079;48.686;15.598;2023-02-14T13:36:54;101693.91;;;20.42;38.86
60212;BME280;46079;48.686;15.598;2023-02-14T13:39:30;101701.78;;;20.42;38.87
60212;BME280;46079;48.686;15.598;2023-02-14T13:41:58;101699.28;;;20.41;38.77
60212;BME280;46079;48.686;15.598;2023-02-14T13:44:49;101705.25;;;20.43;38.76
60212;BME280;46079;48.686;15.598;2023-02-14T13:47:24;101705.25;;;20.43;38.75
60212;BME280;46079;48.686;15.598;2023-02-14T13:49:57;101702.75;;;20.41;38.70
60212;BME280;46079;48.686;15.598;2023-02-14T13:52:43;101707.06;;;20.42;38.84
60212;BME280;46079;48.686;15.598;2023-02-14T13:55:16;101700.13;;;20.41;38.75
60212;BME280;46079;48.686;15.598;2023-02-14T13:57:42;101695.69;;;20.42;38.75
60212;BME280;46079;48.686;15.598;2023-02-14T14:02:52;101700.13;;;20.41;38.94
60212;BME280;46079;48.686;15.598;2023-02-14T14:11:02;101682.66;;;20.40;38.83
60212;BME280;46079;48.686;15.598;2023-02-14T14:16:33;101686.97;;;20.41;38.68
60212;BME280;46079;48.686;15.598;2023-02-14T14:21:33;101677.41;;;20.40;38.58
60212;BME280;46079;48.686;15.598;2023-02-14T14:24:22;101673.06;;;20.39;38.73
60212;BME280;46079;48.686;15.598;2023-02-14T14:27:17;101675.72;;;20.39;38.61
60212;BME280;46079;48.686;15.598;2023-02-14T14:29:47;101680.97;;;20.39;38.70
60212;BME280;46079;48.686;15.598;2023-02-14T14:34:54;101668.78;;;20.38;38.73
60212;BME280;46079;48.686;15.598;2023-02-14T14:37:26;101670.44;;;20.39;38.71
60212;BME280;46079;48.686;15.598;2023-02-14T14:39:55;101655.63;;;20.38;38.58
60212;BME280;46079;48.686;15.598;2023-02-14T14:42:23;101658.25;;;20.38;38.42
60212;BME280;46079;48.686;15.598;2023-02-14T14:44:56;101646.91;;;20.38;38.48
60212;BME280;46079;48.686;15.598;2023-02-14T14:47:44;101654.78;;;20.38;38.63
60212;BME280;46079;48.686;15.598;2023-02-14T14:50:21;101652.25;;;20.36;38.60
60212;BME280;46079;48.686;15.598;2023-02-14T14:52:49;101647.00;;;20.36;38.55
60212;BME280;46079;48.686;15.598;2023-02-14T14:55:19;101650.47;;;20.37;38.59
60212;BME280;46079;48.686;15.598;2023-02-14T14:57:51;101643.53;;;20.36;38.75
60212;BME280;46079;48.686;15.598;2023-02-14T15:00:28;101654.03;;;20.36;38.35
60212;BME280;46079;48.686;15.598;2023-02-14T15:05:40;101652.31;;;20.35;38.56